sensor_id;sensor_type;location;lat;lon;timestamp;pressure;altitude;pressure_sealevel;temperature;humidity
74422;BME280;62856;51.446;8.360;2023-09-19T00:02:17;97143.00;;;23.44;55.36
74422;BME280;62856;51.446;8.360;2023-09-19T00:04:43;97153.59;;;23.46;55.06
74422;BME280;62856;51.446;8.360;2023-09-19T00:07:08;97145.75;;;23.44;55.36
74422;BME280;62856;51.446;8.360;2023-09-19T00:09:34;97144.97;;;23.44;55.29
74422;BME280;62856;51.446;8.360;2023-09-19T00:12:05;97146.53;;;23.45;55.28
74422;BME280;62856;51.446;8.360;2023-09-19T00:14:30;97148.50;;;23.44;55.29
74422;BME280;62856;51.446;8.360;2023-09-19T00:16:59;97152.03;;;23.45;55.08
74422;BME280;62856;51.446;8.360;2023-09-19T00:19:26;97154.78;;;23.45;55.60
74422;BME280;62856;51.446;8.360;2023-09-19T00:21:51;97156.75;;;23.44;55.74
74422;BME280;62856;51.446;8.360;2023-09-19T00:24:18;97167.34;;;23.42;55.69
74422;BME280;62856;51.446;8.360;2023-09-19T00:26:43;97179.56;;;23.45;55.45
74422;BME280;62856;51.446;8.360;2023-09-19T00:29:08;97185.84;;;23.45;55.37
74422;BME280;62856;51.446;8.360;2023-09-19T00:31:34;97177.59;;;23.42;55.41
74422;BME280;62856;51.446;8.360;2023-09-19T00:34:02;97177.59;;;23.42;55.63
74422;BME280;62856;51.446;8.360;2023-09-19T00:36:32;97181.09;;;23.42;55.42
74422;BME280;62856;51.446;8.360;2023-09-19T00:38:58;97183.09;;;23.42;55.13
74422;BME280;62856;51.446;8.360;2023-09-19T00:41:24;97186.59;;;23.42;55.54
74422;BME280;62856;51.446;8.360;2023-09-19T00:43:50;97186.59;;;23.42;55.34
74422;BME280;62856;51.446;8.360;2023-09-19T00:46:18;97189.75;;;23.41;55.22
74422;BME280;62856;51.446;8.360;2023-09-19T00:48:44;97175.19;;;23.40;55.32
74422;BME280;62856;51.446;8.360;2023-09-19T00:51:09;97188.94;;;23.40;55.09
74422;BME280;62856;51.446;8.360;2023-09-19T00:53:36;97184.22;;;23.37;54.99
74422;BME280;62856;51.446;8.360;2023-09-19T00:56:03;97193.69;;;23.40;55.04
74422;BME280;62856;51.446;8.360;2023-09-19T00:58:33;97197.59;;;23.39;54.81
74422;BME280;62856;51.446;8.360;2023-09-19T01:01:00;97205.09;;;23.38;54.72
74422;BME280;62856;51.446;8.360;2023-09-19T01:03:27;97207.84;;;23.38;54.95
74422;BME280;62856;51.446;8.360;2023-09-19T01:05:52;97205.84;;;23.39;54.86
74422;BME280;62856;51.446;8.360;2023-09-19T01:08:18;97214.91;;;23.39;54.97
74422;BME280;62856;51.446;8.360;2023-09-19T01:10:52;97205.09;;;23.38;55.17
74422;BME280;62856;51.446;8.360;2023-09-19T01:13:30;97218.03;;;23.38;54.88
74422;BME280;62856;51.446;8.360;2023-09-19T01:24:55;97231.38;;;23.36;54.57
74422;BME280;62856;51.446;8.360;2023-09-19T01:30:14;97235.31;;;23.35;54.76
74422;BME280;62856;51.446;8.360;2023-09-19T01:32:40;97224.28;;;23.35;54.61
74422;BME280;62856;51.446;8.360;2023-09-19T01:35:06;97230.97;;;23.34;54.71
74422;BME280;62856;51.446;8.360;2023-09-19T01:37:37;97237.69;;;23.33;54.37
74422;BME280;62856;51.446;8.360;2023-09-19T01:40:14;97229.41;;;23.33;54.38
74422;BME280;62856;51.446;8.360;2023-09-19T01:42:50;97232.94;;;23.33;54.47
74422;BME280;62856;51.446;8.360;2023-09-19T01:47:55;97236.09;;;23.32;54.55
74422;BME280;62856;51.446;8.360;2023-09-19T01:50:32;97247.09;;;23.32;54.29
74422;BME280;62856;51.446;8.360;2023-09-19T01:53:11;97248.28;;;23.31;54.11
74422;BME280;62856;51.446;8.360;2023-09-19T01:55:43;97248.28;;;23.31;54.04
74422;BME280;62856;51.446;8.360;2023-09-19T02:01:00;97243.94;;;23.29;54.24
74422;BME280;62856;51.446;8.360;2023-09-19T02:03:26;97249.44;;;23.29;53.77
74422;BME280;62856;51.446;8.360;2023-09-19T02:05:54;97238.44;;;23.29;54.05
74422;BME280;62856;51.446;8.360;2023-09-19T02:08:20;97242.34;;;23.28;53.94
74422;BME280;62856;51.446;8.360;2023-09-19T02:10:48;97251.75;;;23.27;53.75
74422;BME280;62856;51.446;8.360;2023-09-19T02:13:16;97255.69;;;23.26;53.57
74422;BME280;62856;51.446;8.360;2023-09-19T02:15:42;97258.44;;;23.26;53.59
74422;BME280;62856;51.446;8.360;2023-09-19T02:18:09;97269.44;;;23.26;53.54
74422;BME280;62856;51.446;8.360;2023-09-19T02:20:34;97271.00;;;23.27;53.91
74422;BME280;62856;51.446;8.360;2023-09-19T02:23:00;97265.09;;;23.25;53.51
74422;BME280;62856;51.446;8.360;2023-09-19T02:25:25;97266.69;;;23.26;53.68
74422;BME280;62856;51.446;8.360;2023-09-19T02:27:52;97270.59;;;23.25;53.65
74422;BME280;62856;51.446;8.360;2023-09-19T02:30:19;97266.28;;;23.24;53.39
74422;BME280;62856;51.446;8.360;2023-09-19T02:32:46;97268.22;;;23.24;53.78
74422;BME280;62856;51.446;8.360;2023-09-19T02:35:11;97266.66;;;23.23;53.68
74422;BME280;62856;51.446;8.360;2023-09-19T02:37:37;97264.72;;;23.23;53.40
74422;BME280;62856;51.446;8.360;2023-09-19T02:40:03;97260.38;;;23.22;53.56
74422;BME280;62856;51.446;8.360;2023-09-19T02:42:38;97272.97;;;23.23;53.58
74422;BME280;62856;51.446;8.360;2023-09-19T02:45:04;97263.91;;;23.23;53.54
74422;BME280;62856;51.446;8.360;2023-09-19T02:47:31;97268.63;;;23.22;53.52
74422;BME280;62856;51.446;8.360;2023-09-19T02:49:56;97267.81;;;23.22;53.30
74422;BME280;62856;51.446;8.360;2023-09-19T02:52:21;97269.81;;;23.21;53.34
74422;BME280;62856;51.446;8.360;2023-09-19T02:54:48;97275.31;;;23.21;53.46
74422;BME280;62856;51.446;8.360;2023-09-19T02:57:13;97273.72;;;23.20;53.27
74422;BME280;62856;51.446;8.360;2023-09-19T02:59:40;97280.00;;;23.21;53.22
74422;BME280;62856;51.446;8.360;2023-09-19T03:02:07;97278.44;;;23.20;53.21
74422;BME280;62856;51.446;8.360;2023-09-19T03:04:33;97279.22;;;23.20;53.26
74422;BME280;62856;51.446;8.360;2023-09-19T03:07:00;97279.22;;;23.20;53.22
74422;BME280;62856;51.446;8.360;2023-09-19T03:09:26;97283.16;;;23.19;52.85
74422;BME280;62856;51.446;8.360;2023-09-19T03:11:51;97287.84;;;23.19;52.97
74422;BME280;62856;51.446;8.360;2023-09-19T03:14:17;97282.34;;;23.19;53.09
74422;BME280;62856;51.446;8.360;2023-09-19T03:16:45;97291.78;;;23.18;52.97
74422;BME280;62856;51.446;8.360;2023-09-19T03:19:10;97291.00;;;23.17;53.40
74422;BME280;62856;51.446;8.360;2023-09-19T03:21:37;97287.84;;;23.15;53.06
74422;BME280;62856;51.446;8.360;2023-09-19T03:24:04;97298.44;;;23.17;52.84
74422;BME280;62856;51.446;8.360;2023-09-19T03:26:29;97296.88;;;23.16;52.83
74422;BME280;62856;51.446;8.360;2023-09-19T03:28:55;97298.84;;;23.15;52.62
74422;BME280;62856;51.446;8.360;2023-09-19T03:31:20;97294.50;;;23.14;52.61
74422;BME280;62856;51.446;8.360;2023-09-19T03:33:45;97289.38;;;23.13;52.69
74422;BME280;62856;51.446;8.360;2023-09-19T03:36:11;97291.75;;;23.14;52.67
74422;BME280;62856;51.446;8.360;2023-09-19T03:38:38;97291.75;;;23.14;52.52
74422;BME280;62856;51.446;8.360;2023-09-19T03:41:03;97283.88;;;23.13;52.67
74422;BME280;62856;51.446;8.360;2023-09-19T03:43:29;97295.66;;;23.13;52.57
74422;BME280;62856;51.446;8.360;2023-09-19T03:45:54;97293.69;;;23.10;52.38
74422;BME280;62856;51.446;8.360;2023-09-19T03:48:19;97298.41;;;23.10;52.34
74422;BME280;62856;51.446;8.360;2023-09-19T03:50:47;97307.84;;;23.12;52.51
74422;BME280;62856;51.446;8.360;2023-09-19T03:53:12;97300.34;;;23.09;52.58
74422;BME280;62856;51.446;8.360;2023-09-19T03:55:37;97298.00;;;23.11;52.35
74422;BME280;62856;51.446;8.360;2023-09-19T03:58:04;97301.94;;;23.10;52.25
74422;BME280;62856;51.446;8.360;2023-09-19T04:00:30;97292.91;;;23.10;52.31
74422;BME280;62856;51.446;8.360;2023-09-19T04:02:55;97288.59;;;23.09;52.10
74422;BME280;62856;51.446;8.360;2023-09-19T04:05:22;97291.34;;;23.09;52.10
74422;BME280;62856;51.446;8.360;2023-09-19T04:07:47;97301.53;;;23.08;51.85
74422;BME280;62856;51.446;8.360;2023-09-19T04:10:12;97291.34;;;23.09;52.02
74422;BME280;62856;51.446;8.360;2023-09-19T04:12:39;97290.53;;;23.08;52.30
74422;BME280;62856;51.446;8.360;2023-09-19T04:15:05;97294.44;;;23.07;51.85
74422;BME280;62856;51.446;8.360;2023-09-19T04:17:31;97287.78;;;23.08;51.87
74422;BME280;62856;51.446;8.360;2023-09-19T04:19:58;97291.69;;;23.07;51.97
74422;BME280;62856;51.446;8.360;2023-09-19T04:22:23;97301.13;;;23.06;51.81
74422;BME280;62856;51.446;8.360;2023-09-19T04:24:49;97299.56;;;23.05;51.68
74422;BME280;62856;51.446;8.360;2023-09-19T04:27:14;97295.63;;;23.06;51.37
74422;BME280;62856;51.446;8.360;2023-09-19T04:29:40;97303.09;;;23.06;51.58
74422;BME280;62856;51.446;8.360;2023-09-19T04:32:07;97297.97;;;23.04;51.38
74422;BME280;62856;51.446;8.360;2023-09-19T04:34:32;97301.53;;;23.05;51.43
74422;BME280;62856;51.446;8.360;2023-09-19T04:36:59;97301.13;;;23.06;50.62
74422;BME280;62856;51.446;8.360;2023-09-19T04:39:26;97299.56;;;23.05;51.53
74422;BME280;62856;51.446;8.360;2023-09-19T04:41:52;97308.97;;;23.04;51.20
74422;BME280;62856;51.446;8.360;2023-09-19T04:44:18;97317.22;;;23.04;51.41
74422;BME280;62856;51.446;8.360;2023-09-19T04:46:43;97312.91;;;23.03;51.26
74422;BME280;62856;51.446;8.360;2023-09-19T04:49:08;97311.72;;;23.04;51.30
74422;BME280;62856;51.446;8.360;2023-09-19T04:51:34;97318.41;;;23.03;51.50
74422;BME280;62856;51.446;8.360;2023-09-19T04:54:01;97323.91;;;23.03;51.33
74422;BME280;62856;51.446;8.360;2023-09-19T04:56:26;97322.31;;;23.02;51.31
74422;BME280;62856;51.446;8.360;2023-09-19T04:58:53;97325.06;;;23.02;51.43
74422;BME280;62856;51.446;8.360;2023-09-19T05:01:19;97330.97;;;23.04;51.55
74422;BME280;62856;51.446;8.360;2023-09-19T05:03:47;97325.84;;;23.03;51.67
74422;BME280;62856;51.446;8.360;2023-09-19T05:06:17;97334.91;;;23.03;51.78
74422;BME280;62856;51.446;8.360;2023-09-19T05:08:43;97337.66;;;23.03;51.52
74422;BME280;62856;51.446;8.360;2023-09-19T05:11:08;97344.72;;;23.04;51.22
74422;BME280;62856;51.446;8.360;2023-09-19T05:13:34;97352.97;;;23.04;51.35
74422;BME280;62856;51.446;8.360;2023-09-19T05:16:00;97350.22;;;23.04;51.41
74422;BME280;62856;51.446;8.360;2023-09-19T05:18:27;97355.72;;;23.04;51.28
74422;BME280;62856;51.446;8.360;2023-09-19T05:20:53;97358.47;;;23.04;51.32
74422;BME280;62856;51.446;8.360;2023-09-19T05:23:20;97349.00;;;23.02;51.53
74422;BME280;62856;51.446;8.360;2023-09-19T05:25:48;97347.47;;;23.04;51.58
74422;BME280;62856;51.446;8.360;2023-09-19T05:28:13;97350.22;;;23.04;51.46
74422;BME280;62856;51.446;8.360;2023-09-19T05:30:40;97358.47;;;23.04;51.47
74422;BME280;62856;51.446;8.360;2023-09-19T05:33:07;97360.06;;;23.05;51.27
74422;BME280;62856;51.446;8.360;2023-09-19T05:35:33;97371.06;;;23.05;51.48
74422;BME280;62856;51.446;8.360;2023-09-19T05:37:58;97361.22;;;23.04;51.58
74422;BME280;62856;51.446;8.360;2023-09-19T05:40:25;97370.66;;;23.07;51.28
74422;BME280;62856;51.446;8.360;2023-09-19T05:42:50;97376.16;;;23.07;51.31
74422;BME280;62856;51.446;8.360;2023-09-19T05:45:17;97382.81;;;23.06;51.37
74422;BME280;62856;51.446;8.360;2023-09-19T05:47:50;97389.88;;;23.03;51.35
74422;BME280;62856;51.446;8.360;2023-09-19T05:50:16;97391.84;;;23.03;50.73
74422;BME280;62856;51.446;8.360;2023-09-19T05:52:42;97398.88;;;23.00;50.52
74422;BME280;62856;51.446;8.360;2023-09-19T05:55:09;97397.72;;;23.01;50.12
74422;BME280;62856;51.446;8.360;2023-09-19T05:57:36;97394.56;;;22.99;49.86
74422;BME280;62856;51.446;8.360;2023-09-19T06:00:05;97407.91;;;23.01;49.62
74422;BME280;62856;51.446;8.360;2023-09-19T06:02:36;97404.78;;;23.02;49.88
74422;BME280;62856;51.446;8.360;2023-09-19T06:05:01;97414.22;;;23.01;49.56
74422;BME280;62856;51.446;8.360;2023-09-19T06:07:26;97418.94;;;23.04;49.41
74422;BME280;62856;51.446;8.360;2023-09-19T06:10:01;97431.91;;;23.04;49.64
74422;BME280;62856;51.446;8.360;2023-09-19T06:12:26;97418.94;;;23.04;49.35
74422;BME280;62856;51.446;8.360;2023-09-19T06:14:51;97428.78;;;23.05;49.50
74422;BME280;62856;51.446;8.360;2023-09-19T06:17:17;97424.84;;;23.06;49.53
74422;BME280;62856;51.446;8.360;2023-09-19T06:19:44;97434.66;;;23.07;49.42
74422;BME280;62856;51.446;8.360;2023-09-19T06:22:14;97437.41;;;23.07;49.29
74422;BME280;62856;51.446;8.360;2023-09-19T06:24:39;97436.28;;;23.08;49.15
74422;BME280;62856;51.446;8.360;2023-09-19T06:27:05;97441.78;;;23.08;48.82
74422;BME280;62856;51.446;8.360;2023-09-19T06:29:32;97441.78;;;23.08;48.46
74422;BME280;62856;51.446;8.360;2023-09-19T06:31:59;97443.75;;;23.11;48.38
74422;BME280;62856;51.446;8.360;2023-09-19T06:34:24;97446.13;;;23.13;48.51
74422;BME280;62856;51.446;8.360;2023-09-19T06:36:51;97443.38;;;23.13;48.28
74422;BME280;62856;51.446;8.360;2023-09-19T06:39:17;97447.72;;;23.14;48.00
74422;BME280;62856;51.446;8.360;2023-09-19T06:41:42;97449.69;;;23.17;48.20
74422;BME280;62856;51.446;8.360;2023-09-19T06:44:07;97450.06;;;23.15;48.20
74422;BME280;62856;51.446;8.360;2023-09-19T06:46:34;97449.31;;;23.18;47.98
74422;BME280;62856;51.446;8.360;2023-09-19T06:49:03;97457.97;;;23.20;47.91
74422;BME280;62856;51.446;8.360;2023-09-19T06:51:31;97441.47;;;23.20;47.98
74422;BME280;62856;51.446;8.360;2023-09-19T06:53:57;97444.22;;;23.20;48.02
74422;BME280;62856;51.446;8.360;2023-09-19T06:56:23;97439.13;;;23.22;47.83
74422;BME280;62856;51.446;8.360;2023-09-19T06:58:50;97439.94;;;23.23;47.71
74422;BME280;62856;51.446;8.360;2023-09-19T07:01:18;97436.00;;;23.24;47.77
74422;BME280;62856;51.446;8.360;2023-09-19T07:03:44;97447.41;;;23.26;47.72
74422;BME280;62856;51.446;8.360;2023-09-19T07:06:10;97434.03;;;23.24;47.61
74422;BME280;62856;51.446;8.360;2023-09-19T07:08:36;97440.38;;;23.28;47.64
74422;BME280;62856;51.446;8.360;2023-09-19T07:11:01;97447.47;;;23.29;47.54
74422;BME280;62856;51.446;8.360;2023-09-19T07:13:27;97444.72;;;23.29;47.29
74422;BME280;62856;51.446;8.360;2023-09-19T07:15:53;97448.25;;;23.30;47.19
74422;BME280;62856;51.446;8.360;2023-09-19T07:18:19;97439.63;;;23.32;46.99
74422;BME280;62856;51.446;8.360;2023-09-19T07:20:45;97448.69;;;23.32;46.76
74422;BME280;62856;51.446;8.360;2023-09-19T07:23:17;97451.03;;;23.34;46.72
74422;BME280;62856;51.446;8.360;2023-09-19T07:25:43;97454.59;;;23.34;46.28
74422;BME280;62856;51.446;8.360;2023-09-19T07:28:08;97459.31;;;23.37;46.77
74422;BME280;62856;51.446;8.360;2023-09-19T07:30:36;97464.03;;;23.40;46.26
74422;BME280;62856;51.446;8.360;2023-09-19T07:33:05;97466.81;;;23.40;46.04
74422;BME280;62856;51.446;8.360;2023-09-19T07:35:31;97466.47;;;23.45;45.70
74422;BME280;62856;51.446;8.360;2023-09-19T07:37:56;97473.94;;;23.45;45.86
74422;BME280;62856;51.446;8.360;2023-09-19T07:40:26;97479.00;;;23.43;45.65
74422;BME280;62856;51.446;8.360;2023-09-19T07:42:54;97471.94;;;23.42;45.65
74422;BME280;62856;51.446;8.360;2023-09-19T07:45:19;97476.66;;;23.41;45.79
74422;BME280;62856;51.446;8.360;2023-09-19T07:47:49;97480.63;;;23.44;45.44
74422;BME280;62856;51.446;8.360;2023-09-19T07:50:19;97482.97;;;23.45;45.13
74422;BME280;62856;51.446;8.360;2023-09-19T07:52:45;97486.13;;;23.47;45.42
74422;BME280;62856;51.446;8.360;2023-09-19T07:55:11;97488.13;;;23.50;45.17
74422;BME280;62856;51.446;8.360;2023-09-19T07:57:41;97494.03;;;23.52;45.41
74422;BME280;62856;51.446;8.360;2023-09-19T08:00:08;97488.16;;;23.54;45.30
74422;BME280;62856;51.446;8.360;2023-09-19T08:02:35;97490.13;;;23.57;45.22
74422;BME280;62856;51.446;8.360;2023-09-19T08:05:03;97488.56;;;23.56;45.11
74422;BME280;62856;51.446;8.360;2023-09-19T08:07:32;97476.78;;;23.59;45.16
74422;BME280;62856;51.446;8.360;2023-09-19T08:09:57;97485.44;;;23.61;45.28
74422;BME280;62856;51.446;8.360;2023-09-19T08:12:24;97491.00;;;23.71;45.10
74422;BME280;62856;51.446;8.360;2023-09-19T08:14:49;97491.50;;;23.84;45.00
74422;BME280;62856;51.446;8.360;2023-09-19T08:17:15;97478.97;;;23.93;44.37
74422;BME280;62856;51.446;8.360;2023-09-19T08:19:41;97477.50;;;24.03;44.52
74422;BME280;62856;51.446;8.360;2023-09-19T08:22:07;97477.56;;;24.17;44.11
74422;BME280;62856;51.446;8.360;2023-09-19T08:24:35;97480.34;;;24.24;43.74
74422;BME280;62856;51.446;8.360;2023-09-19T08:27:00;97483.53;;;24.29;43.90
74422;BME280;62856;51.446;8.360;2023-09-19T08:29:30;97481.59;;;24.37;44.25
74422;BME280;62856;51.446;8.360;2023-09-19T08:31:56;97474.94;;;24.45;44.46
74422;BME280;62856;51.446;8.360;2023-09-19T08:34:22;97486.41;;;24.54;44.50
74422;BME280;62856;51.446;8.360;2023-09-19T08:36:49;97487.97;;;24.62;44.21
74422;BME280;62856;51.446;8.360;2023-09-19T08:39:15;97470.31;;;24.70;44.29
74422;BME280;62856;51.446;8.360;2023-09-19T08:41:40;97473.50;;;24.79;43.67
74422;BME280;62856;51.446;8.360;2023-09-19T08:44:06;97472.34;;;24.91;43.28
74422;BME280;62856;51.446;8.360;2023-09-19T08:46:34;97476.28;;;25.00;42.67
74422;BME280;62856;51.446;8.360;2023-09-19T08:49:04;97477.88;;;25.12;42.74
74422;BME280;62856;51.446;8.360;2023-09-19T08:51:43;97479.09;;;25.25;41.96
74422;BME280;62856;51.446;8.360;2023-09-19T08:54:21;97490.56;;;25.38;41.66
74422;BME280;62856;51.446;8.360;2023-09-19T08:56:50;97474.78;;;25.42;41.54
74422;BME280;62856;51.446;8.360;2023-09-19T08:59:17;97487.78;;;25.45;41.12
74422;BME280;62856;51.446;8.360;2023-09-19T09:01:49;97496.47;;;25.50;40.99
74422;BME280;62856;51.446;8.360;2023-09-19T09:04:18;97490.16;;;25.57;40.36
74422;BME280;62856;51.446;8.360;2023-09-19T09:06:45;97499.22;;;25.61;40.56
74422;BME280;62856;51.446;8.360;2023-09-19T09:09:14;97489.78;;;25.62;40.13
74422;BME280;62856;51.446;8.360;2023-09-19T09:11:40;97496.06;;;25.66;40.03
74422;BME280;62856;51.446;8.360;2023-09-19T09:14:06;97500.41;;;25.70;39.36
74422;BME280;62856;51.446;8.360;2023-09-19T09:16:32;97510.66;;;25.70;39.43
74422;BME280;62856;51.446;8.360;2023-09-19T09:18:58;97508.28;;;25.75;39.38
74422;BME280;62856;51.446;8.360;2023-09-19T09:21:26;97520.91;;;25.83;39.44
74422;BME280;62856;51.446;8.360;2023-09-19T09:23:51;97503.53;;;25.86;39.73
74422;BME280;62856;51.446;8.360;2023-09-19T09:26:41;97515.38;;;25.94;39.24
74422;BME280;62856;51.446;8.360;2023-09-19T09:29:12;97513.00;;;26.10;39.52
74422;BME280;62856;51.446;8.360;2023-09-19T09:31:37;97513.75;;;26.28;39.52
74422;BME280;62856;51.446;8.360;2023-09-19T09:34:03;97527.13;;;26.37;39.55
74422;BME280;62856;51.446;8.360;2023-09-19T09:36:39;97518.44;;;26.45;39.24
74422;BME280;62856;51.446;8.360;2023-09-19T09:39:06;97525.97;;;26.38;38.60
74422;BME280;62856;51.446;8.360;2023-09-19T09:41:49;97524.81;;;26.28;39.43
74422;BME280;62856;51.446;8.360;2023-09-19T09:44:16;97523.19;;;26.38;38.96
74422;BME280;62856;51.446;8.360;2023-09-19T09:46:48;97520.44;;;26.34;39.50
74422;BME280;62856;51.446;8.360;2023-09-19T09:49:23;97529.91;;;26.30;39.49
74422;BME280;62856;51.446;8.360;2023-09-19T09:52:04;97521.97;;;26.42;39.41
74422;BME280;62856;51.446;8.360;2023-09-19T09:55:01;97535.06;;;26.38;39.34
74422;BME280;62856;51.446;8.360;2023-09-19T09:57:31;97523.97;;;26.45;39.47
74422;BME280;62856;51.446;8.360;2023-09-19T09:59:57;97517.19;;;26.57;39.08
74422;BME280;62856;51.446;8.360;2023-09-19T10:02:28;97525.84;;;26.69;38.78
74422;BME280;62856;51.446;8.360;2023-09-19T10:04:57;97511.97;;;26.87;38.47
74422;BME280;62856;51.446;8.360;2023-09-19T10:07:34;97511.88;;;27.01;38.21
74422;BME280;62856;51.446;8.360;2023-09-19T10:10:06;97516.13;;;27.19;38.39
74422;BME280;62856;51.446;8.360;2023-09-19T10:12:54;97499.41;;;27.37;37.64
74422;BME280;62856;51.446;8.360;2023-09-19T10:15:31;97497.72;;;27.50;37.60
74422;BME280;62856;51.446;8.360;2023-09-19T10:17:59;97494.03;;;27.64;37.56
74422;BME280;62856;51.446;8.360;2023-09-19T10:20:26;97508.97;;;27.77;37.42
74422;BME280;62856;51.446;8.360;2023-09-19T10:22:56;97500.13;;;27.96;37.22
74422;BME280;62856;51.446;8.360;2023-09-19T10:25:27;97492.88;;;28.09;36.78
74422;BME280;62856;51.446;8.360;2023-09-19T10:27:57;97486.81;;;28.17;36.52
74422;BME280;62856;51.446;8.360;2023-09-19T10:30:24;97485.94;;;28.24;36.50
74422;BME280;62856;51.446;8.360;2023-09-19T10:33:02;97488.97;;;28.37;36.17
74422;BME280;62856;51.446;8.360;2023-09-19T10:35:28;97491.97;;;28.49;36.17
74422;BME280;62856;51.446;8.360;2023-09-19T10:37:59;97489.66;;;28.81;35.61
74422;BME280;62856;51.446;8.360;2023-09-19T10:40:27;97495.19;;;28.81;35.25
74422;BME280;62856;51.446;8.360;2023-09-19T10:43:04;97489.34;;;29.02;35.18
74422;BME280;62856;51.446;8.360;2023-09-19T10:45:34;97483.53;;;28.93;35.16
74422;BME280;62856;51.446;8.360;2023-09-19T10:47:59;97478.72;;;28.97;35.58
74422;BME280;62856;51.446;8.360;2023-09-19T10:50:32;97479.81;;;29.03;35.57
74422;BME280;62856;51.446;8.360;2023-09-19T10:53:02;97491.94;;;29.16;35.07
74422;BME280;62856;51.446;8.360;2023-09-19T10:55:31;97489.22;;;29.09;35.10
74422;BME280;62856;51.446;8.360;2023-09-19T10:58:02;97481.63;;;29.44;34.84
74422;BME280;62856;51.446;8.360;2023-09-19T11:00:53;97490.16;;;29.79;34.14
74422;BME280;62856;51.446;8.360;2023-09-19T11:03:20;97473.06;;;29.81;33.74
74422;BME280;62856;51.446;8.360;2023-09-19T11:06:18;97483.78;;;30.02;33.90
74422;BME280;62856;51.446;8.360;2023-09-19T11:09:03;97466.97;;;30.32;33.58
74422;BME280;62856;51.446;8.360;2023-09-19T11:11:48;97467.66;;;30.56;32.51
74422;BME280;62856;51.446;8.360;2023-09-19T11:30:40;97448.13;;;30.59;32.69
74422;BME280;62856;51.446;8.360;2023-09-19T11:33:19;97465.00;;;30.68;32.10
74422;BME280;62856;51.446;8.360;2023-09-19T11:46:26;97457.38;;;30.33;32.16
74422;BME280;62856;51.446;8.360;2023-09-19T11:48:54;97472.63;;;30.25;32.65
74422;BME280;62856;51.446;8.360;2023-09-19T11:51:23;97456.41;;;30.43;32.59
74422;BME280;62856;51.446;8.360;2023-09-19T11:53:52;97466.16;;;30.51;31.81
74422;BME280;62856;51.446;8.360;2023-09-19T11:56:20;97460.59;;;30.51;31.71
74422;BME280;62856;51.446;8.360;2023-09-19T11:58:49;97459.13;;;30.47;32.17
74422;BME280;62856;51.446;8.360;2023-09-19T12:01:31;97469.00;;;30.48;32.34
74422;BME280;62856;51.446;8.360;2023-09-19T12:04:00;97459.78;;;30.11;32.31
74422;BME280;62856;51.446;8.360;2023-09-19T12:06:28;97467.50;;;29.81;32.78
74422;BME280;62856;51.446;8.360;2023-09-19T12:08:55;97468.13;;;29.69;33.07
74422;BME280;62856;51.446;8.360;2023-09-19T12:11:23;97461.00;;;29.87;33.76
74422;BME280;62856;51.446;8.360;2023-09-19T12:13:50;97454.06;;;29.99;32.85
74422;BME280;62856;51.446;8.360;2023-09-19T12:16:17;97454.25;;;29.88;33.00
74422;BME280;62856;51.446;8.360;2023-09-19T12:18:47;97465.53;;;30.01;32.68
74422;BME280;62856;51.446;8.360;2023-09-19T12:21:31;97449.13;;;30.30;32.54
74422;BME280;62856;51.446;8.360;2023-09-19T12:23:58;97457.25;;;30.60;31.93
74422;BME280;62856;51.446;8.360;2023-09-19T12:26:26;97460.66;;;30.87;31.46
74422;BME280;62856;51.446;8.360;2023-09-19T12:28:54;97461.66;;;30.96;31.81
74422;BME280;62856;51.446;8.360;2023-09-19T12:31:19;97474.38;;;31.13;31.15
74422;BME280;62856;51.446;8.360;2023-09-19T12:33:45;97465.03;;;31.04;30.82
74422;BME280;62856;51.446;8.360;2023-09-19T12:36:21;97468.06;;;30.93;31.15
74422;BME280;62856;51.446;8.360;2023-09-19T12:38:53;97471.63;;;30.94;31.23
74422;BME280;62856;51.446;8.360;2023-09-19T12:41:20;97474.78;;;30.96;31.16
74422;BME280;62856;51.446;8.360;2023-09-19T12:43:47;97465.63;;;30.95;31.02
74422;BME280;62856;51.446;8.360;2023-09-19T12:46:13;97470.50;;;30.91;31.29
74422;BME280;62856;51.446;8.360;2023-09-19T12:48:40;97460.13;;;30.56;31.43
74422;BME280;62856;51.446;8.360;2023-09-19T12:51:12;97451.97;;;30.46;31.92
74422;BME280;62856;51.446;8.360;2023-09-19T12:53:45;97447.03;;;30.73;31.59
74422;BME280;62856;51.446;8.360;2023-09-19T12:56:18;97442.47;;;30.82;30.46
74422;BME280;62856;51.446;8.360;2023-09-19T12:58:56;97439.19;;;30.87;31.34
74422;BME280;62856;51.446;8.360;2023-09-19T13:01:24;97438.31;;;30.71;30.63
74422;BME280;62856;51.446;8.360;2023-09-19T13:04:15;97442.06;;;30.45;31.56
74422;BME280;62856;51.446;8.360;2023-09-19T13:06:47;97440.63;;;30.56;31.65
74422;BME280;62856;51.446;8.360;2023-09-19T13:09:14;97440.84;;;30.65;31.03
74422;BME280;62856;51.446;8.360;2023-09-19T13:11:41;97441.22;;;30.28;31.83
74422;BME280;62856;51.446;8.360;2023-09-19T13:17:01;97446.50;;;29.80;32.69
74422;BME280;62856;51.446;8.360;2023-09-19T13:19:47;97434.94;;;29.58;33.09
74422;BME280;62856;51.446;8.360;2023-09-19T13:22:42;97445.84;;;29.46;33.34
74422;BME280;62856;51.446;8.360;2023-09-19T13:25:13;97440.28;;;29.23;33.46
74422;BME280;62856;51.446;8.360;2023-09-19T13:27:53;97451.16;;;29.10;33.60
74422;BME280;62856;51.446;8.360;2023-09-19T13:30:20;97426.50;;;28.89;34.03
74422;BME280;62856;51.446;8.360;2023-09-19T13:32:47;97423.16;;;28.74;34.80
74422;BME280;62856;51.446;8.360;2023-09-19T13:35:13;97419.00;;;28.59;34.97
74422;BME280;62856;51.446;8.360;2023-09-19T13:37:40;97423.59;;;28.39;35.23
74422;BME280;62856;51.446;8.360;2023-09-19T13:40:12;97419.69;;;28.33;35.58
74422;BME280;62856;51.446;8.360;2023-09-19T13:42:38;97434.91;;;28.22;35.52
74422;BME280;62856;51.446;8.360;2023-09-19T13:45:05;97421.19;;;28.07;35.64
74422;BME280;62856;51.446;8.360;2023-09-19T13:47:31;97424.94;;;27.94;35.89
74422;BME280;62856;51.446;8.360;2023-09-19T13:49:58;97415.06;;;27.86;36.40
74422;BME280;62856;51.446;8.360;2023-09-19T13:52:23;97429.47;;;27.74;36.35
74422;BME280;62856;51.446;8.360;2023-09-19T13:54:53;97434.69;;;27.65;36.17